createdAt,value
2022-12-25T00:03:07.288Z,1.30
2022-12-25T00:06:12.059Z,1.30
2022-12-25T00:09:17.272Z,1.30
2022-12-25T00:12:22.484Z,1.30
2022-12-25T00:15:27.218Z,1.20
2022-12-25T00:18:32.230Z,1.30
2022-12-25T00:21:36.591Z,1.20
2022-12-25T00:24:48.267Z,1.30
2022-12-25T00:27:52.403Z,1.20
2022-12-25T00:30:58.613Z,1.30
2022-12-25T00:34:04.300Z,1.30
2022-12-25T00:37:09.709Z,1.20
2022-12-25T00:40:13.976Z,1.20
2022-12-25T00:43:18.425Z,1.20
2022-12-25T00:46:23.040Z,1.30
2022-12-25T00:49:27.907Z,1.20
2022-12-25T00:52:32.626Z,1.10
2022-12-25T00:55:37.134Z,1.20
2022-12-25T00:58:41.155Z,1.20
2022-12-25T01:01:45.795Z,1.20
2022-12-25T01:04:54.766Z,1.20
2022-12-25T01:07:58.915Z,1.20
2022-12-25T01:11:07.984Z,1.20
2022-12-25T01:14:12.473Z,1.10
2022-12-25T01:17:17.181Z,1.30
2022-12-25T01:20:21.606Z,1.20
2022-12-25T01:23:26.122Z,1.20
2022-12-25T01:26:30.554Z,1.30
2022-12-25T01:29:35.139Z,1.20
2022-12-25T01:32:40.022Z,1.20
2022-12-25T01:35:44.636Z,1.30
2022-12-25T01:38:49.682Z,1.40
2022-12-25T01:41:54.186Z,1.20
2022-12-25T01:45:21.811Z,1.40
2022-12-25T01:48:29.699Z,1.30
2022-12-25T01:52:00.360Z,1.40
2022-12-25T01:55:05.367Z,1.40
2022-12-25T01:58:10.166Z,1.30
2022-12-25T02:01:15.015Z,1.40
2022-12-25T02:04:38.973Z,1.40
2022-12-25T02:07:45.349Z,1.40
2022-12-25T02:10:49.695Z,1.50
2022-12-25T02:13:54.062Z,1.30
2022-12-25T02:17:07.993Z,1.50
2022-12-25T02:20:31.030Z,1.40
2022-12-25T02:23:38.530Z,1.40
2022-12-25T02:26:46.023Z,1.50
2022-12-25T02:30:04.477Z,1.50
2022-12-25T02:33:47.843Z,1.50
2022-12-25T02:37:02.525Z,1.70
2022-12-25T02:40:07.188Z,1.70
2022-12-25T02:43:31.613Z,1.60
2022-12-25T02:46:54.890Z,1.70
2022-12-25T02:50:18.000Z,1.60
2022-12-25T02:53:41.241Z,1.70
2022-12-25T02:57:06.338Z,1.70
2022-12-25T03:00:30.395Z,1.60
2022-12-25T03:03:55.850Z,1.70
2022-12-25T03:07:09.234Z,1.70
2022-12-25T03:10:33.414Z,1.80
2022-12-25T03:13:39.706Z,1.90
2022-12-25T03:16:50.314Z,1.90
2022-12-25T03:20:13.572Z,1.90
2022-12-25T03:23:39.398Z,1.80
2022-12-25T03:26:56.198Z,2.00
2022-12-25T03:30:19.249Z,1.90
2022-12-25T03:33:45.833Z,2.00
2022-12-25T03:36:57.458Z,2.10
2022-12-25T03:40:29.729Z,2.10
2022-12-25T03:43:53.033Z,2.00
2022-12-25T03:47:59.270Z,2.10
2022-12-25T03:51:25.315Z,2.30
2022-12-25T03:54:49.965Z,2.40
2022-12-25T03:58:12.956Z,2.40
2022-12-25T04:01:36.070Z,2.30
2022-12-25T04:04:59.147Z,2.20
2022-12-25T04:08:22.041Z,2.20
2022-12-25T04:11:45.116Z,2.30
2022-12-25T04:15:08.215Z,2.50
2022-12-25T04:18:31.496Z,2.20
2022-12-25T04:21:54.482Z,2.30
2022-12-25T04:25:17.557Z,2.20
2022-12-25T04:28:40.236Z,2.20
2022-12-25T04:32:03.547Z,2.30
2022-12-25T04:35:26.459Z,2.50
2022-12-25T04:38:31.004Z,2.50
2022-12-25T04:41:35.713Z,2.30
2022-12-25T04:44:40.243Z,2.50
2022-12-25T04:47:44.330Z,2.40
2022-12-25T04:50:48.538Z,2.30
2022-12-25T04:53:53.437Z,2.70
2022-12-25T04:56:57.987Z,2.60
2022-12-25T05:00:02.666Z,2.60
2022-12-25T05:03:07.042Z,2.80
2022-12-25T05:06:12.755Z,2.80
2022-12-25T05:09:17.478Z,2.90
2022-12-25T05:12:22.013Z,3.10
2022-12-25T05:15:26.494Z,3.10
2022-12-25T05:18:30.486Z,3.40
2022-12-25T05:21:34.583Z,3.30
2022-12-25T05:24:38.683Z,3.30
2022-12-25T05:27:47.530Z,3.30
2022-12-25T05:30:56.387Z,3.40
2022-12-25T05:34:01.374Z,3.30
2022-12-25T05:37:05.723Z,3.30
2022-12-25T05:40:10.582Z,3.40
2022-12-25T05:43:14.654Z,3.70
2022-12-25T05:46:19.016Z,3.40
2022-12-25T05:49:23.473Z,3.60
2022-12-25T05:52:31.126Z,3.80
2022-12-25T05:55:36.687Z,3.80
2022-12-25T05:58:41.409Z,3.60
2022-12-25T06:01:46.752Z,3.80
2022-12-25T06:04:51.162Z,3.60
2022-12-25T06:07:55.847Z,3.70
2022-12-25T06:11:02.849Z,3.50
2022-12-25T06:14:07.464Z,3.60
2022-12-25T06:17:12.051Z,3.60
2022-12-25T06:20:16.581Z,3.60
2022-12-25T06:23:20.864Z,3.60
2022-12-25T06:26:25.427Z,4.00
2022-12-25T06:29:29.875Z,3.70
2022-12-25T06:32:34.398Z,3.60
2022-12-25T06:35:39.416Z,3.80
2022-12-25T06:38:43.859Z,3.90
2022-12-25T06:41:48.171Z,4.00
2022-12-25T06:44:53.254Z,3.70
2022-12-25T06:47:57.961Z,3.80
2022-12-25T06:51:02.351Z,4.00
2022-12-25T06:54:06.685Z,3.80
2022-12-25T06:57:11.115Z,3.70
2022-12-25T07:00:15.464Z,3.70
2022-12-25T07:03:21.299Z,3.70
2022-12-25T07:06:26.184Z,3.90
2022-12-25T07:09:30.503Z,3.70
2022-12-25T07:12:35.229Z,4.00
2022-12-25T07:15:39.640Z,3.70
2022-12-25T07:18:44.309Z,4.10
2022-12-25T07:21:48.981Z,3.90
2022-12-25T07:24:52.866Z,3.70
2022-12-25T07:27:57.309Z,3.80
2022-12-25T07:31:06.774Z,4.00
2022-12-25T07:34:11.349Z,4.10
2022-12-25T07:37:16.028Z,3.80
2022-12-25T07:40:20.721Z,4.10
2022-12-25T07:43:25.777Z,4.10
2022-12-25T07:46:30.408Z,3.80
2022-12-25T07:49:35.638Z,4.10
2022-12-25T07:52:43.619Z,3.90
2022-12-25T07:55:47.834Z,3.70
2022-12-25T07:58:52.386Z,3.70
2022-12-25T08:03:40.950Z,4.00
2022-12-25T08:06:45.254Z,4.00
2022-12-25T08:09:49.727Z,4.20
2022-12-25T08:12:56.243Z,4.20
2022-12-25T08:16:01.832Z,4.30
2022-12-25T08:19:06.199Z,4.00
2022-12-25T08:22:10.658Z,4.10
2022-12-25T08:25:15.909Z,4.20
2022-12-25T08:28:20.402Z,4.40
2022-12-25T08:31:27.970Z,4.20
2022-12-25T08:34:32.105Z,4.40
2022-12-25T08:37:36.491Z,4.20
2022-12-25T08:40:40.992Z,4.20
2022-12-25T08:43:45.759Z,4.20
2022-12-25T08:46:50.044Z,4.30
2022-12-25T08:49:54.364Z,4.60
2022-12-25T08:52:58.472Z,4.40
2022-12-25T08:56:04.581Z,4.40
2022-12-25T08:59:09.048Z,4.70
2022-12-25T09:02:13.821Z,4.70
2022-12-25T09:05:18.409Z,5.10
2022-12-25T09:08:23.035Z,4.70
2022-12-25T09:11:27.175Z,4.80
2022-12-25T09:14:31.621Z,4.90
2022-12-25T09:17:36.264Z,4.90
2022-12-25T09:20:40.605Z,4.70
2022-12-25T09:23:45.239Z,4.80
2022-12-25T09:26:49.392Z,5.20
2022-12-25T09:29:54.030Z,4.80
2022-12-25T09:32:58.777Z,5.00
2022-12-25T09:36:08.662Z,5.20
2022-12-25T09:39:13.080Z,5.20
2022-12-25T09:42:22.455Z,5.20
2022-12-25T09:45:35.744Z,5.10
2022-12-25T09:48:45.600Z,4.80
2022-12-25T09:51:59.170Z,5.00
2022-12-25T09:55:21.179Z,4.90
2022-12-25T09:58:26.052Z,5.30
2022-12-25T10:01:44.017Z,5.20
2022-12-25T10:05:04.863Z,4.90
2022-12-25T10:08:16.536Z,5.00
2022-12-25T10:11:52.355Z,5.30
2022-12-25T10:15:33.418Z,5.20
2022-12-25T10:18:37.992Z,5.40
2022-12-25T10:21:42.699Z,5.30
2022-12-25T10:24:52.850Z,5.00
2022-12-25T10:28:05.196Z,5.10
2022-12-25T10:31:23.160Z,5.10
2022-12-25T10:34:28.837Z,5.10
2022-12-25T10:37:33.596Z,5.40
2022-12-25T10:41:02.724Z,5.50
2022-12-25T10:44:15.747Z,5.40
2022-12-25T10:47:25.388Z,5.40
2022-12-25T10:50:30.034Z,5.40
2022-12-25T10:53:39.746Z,5.30
2022-12-25T10:57:03.447Z,5.50
2022-12-25T11:00:21.492Z,5.60
2022-12-25T11:03:31.290Z,5.70
2022-12-25T11:06:35.866Z,5.50
2022-12-25T11:09:40.617Z,5.50
2022-12-25T11:12:46.003Z,5.50
2022-12-25T11:16:02.609Z,5.70
2022-12-25T11:19:30.359Z,5.80
2022-12-25T11:22:37.256Z,5.70
2022-12-25T11:25:42.059Z,5.70
2022-12-25T11:28:48.750Z,5.40
2022-12-25T11:31:56.047Z,5.90
2022-12-25T11:35:02.499Z,5.70
2022-12-25T11:38:09.264Z,6.00
2022-12-25T11:41:15.348Z,6.00
2022-12-25T11:44:38.159Z,6.00
2022-12-25T11:48:02.360Z,5.90
2022-12-25T11:51:07.192Z,6.00
2022-12-25T11:54:11.264Z,5.90
2022-12-25T11:57:15.959Z,5.80
2022-12-25T12:00:21.201Z,5.90
2022-12-25T12:03:33.736Z,5.80
2022-12-25T12:06:38.096Z,5.80
2022-12-25T12:09:54.468Z,6.00
2022-12-25T12:13:13.373Z,5.80
2022-12-25T12:16:17.747Z,6.10
2022-12-25T12:19:30.485Z,6.00
2022-12-25T12:22:35.779Z,5.70
2022-12-25T12:25:42.685Z,6.00
2022-12-25T12:28:47.734Z,5.80
2022-12-25T12:31:53.542Z,5.70
2022-12-25T12:34:58.652Z,5.70
2022-12-25T12:38:07.916Z,6.00
2022-12-25T12:41:14.592Z,6.00
2022-12-25T12:44:21.570Z,5.90
2022-12-25T12:47:40.383Z,5.80
2022-12-25T12:50:44.465Z,5.60
2022-12-25T12:53:48.972Z,5.90
2022-12-25T12:56:59.347Z,5.90
2022-12-25T13:00:11.322Z,5.60
2022-12-25T13:03:37.289Z,5.80
2022-12-25T13:07:10.149Z,5.60
2022-12-25T13:10:35.993Z,5.70
2022-12-25T13:13:43.761Z,5.70
2022-12-25T13:16:51.593Z,5.80
2022-12-25T13:19:59.556Z,5.70
2022-12-25T13:23:24.231Z,5.70
2022-12-25T13:26:29.476Z,5.60
2022-12-25T13:29:36.733Z,5.60
2022-12-25T13:32:41.845Z,5.60
2022-12-25T13:35:47.170Z,5.60
2022-12-25T13:38:54.008Z,5.70
2022-12-25T13:42:05.706Z,5.70
2022-12-25T13:45:13.246Z,5.70
2022-12-25T13:48:20.130Z,5.60
2022-12-25T13:51:24.530Z,5.50
2022-12-25T13:54:29.171Z,5.50
2022-12-25T13:57:37.597Z,5.70
2022-12-25T14:00:52.489Z,5.60
2022-12-25T14:03:56.959Z,5.70
2022-12-25T14:07:10.085Z,5.40
2022-12-25T14:10:14.423Z,5.50
2022-12-25T14:13:22.410Z,5.40
2022-12-25T14:16:29.351Z,5.40
2022-12-25T14:19:34.537Z,5.50
2022-12-25T14:22:38.751Z,5.30
2022-12-25T14:25:47.529Z,5.30
2022-12-25T14:29:05.703Z,5.30
2022-12-25T14:32:17.135Z,5.10
2022-12-25T14:35:23.736Z,5.00
2022-12-25T14:38:35.008Z,5.10
2022-12-25T14:41:41.899Z,5.00
2022-12-25T14:44:58.696Z,5.20
2022-12-25T14:48:22.891Z,5.10
2022-12-25T14:51:30.700Z,5.10
2022-12-25T14:54:36.559Z,5.20
2022-12-25T14:57:46.730Z,5.00
2022-12-25T15:01:00.609Z,5.20
2022-12-25T15:04:09.711Z,5.10
2022-12-25T15:07:29.732Z,5.10
2022-12-25T15:13:59.568Z,5.10
2022-12-25T15:17:04.477Z,5.10
2022-12-25T15:20:13.061Z,5.10
2022-12-25T15:23:20.014Z,4.80
2022-12-25T15:26:26.817Z,4.90
2022-12-25T15:30:07.742Z,5.00
2022-12-25T15:32:55.961Z,4.80
2022-12-25T15:36:00.885Z,5.00
2022-12-25T15:39:05.478Z,4.70
2022-12-25T15:42:15.065Z,4.70
2022-12-25T15:45:26.071Z,4.90
2022-12-25T15:48:30.793Z,4.60
2022-12-25T15:51:35.359Z,4.90
2022-12-25T15:54:39.879Z,4.60
2022-12-25T15:57:47.480Z,4.90
2022-12-25T16:00:52.374Z,4.90
2022-12-25T16:03:56.790Z,5.00
2022-12-25T16:07:01.522Z,4.80
2022-12-25T16:10:07.081Z,4.80
2022-12-25T16:13:11.431Z,4.90
2022-12-25T16:16:15.797Z,5.00
2022-12-25T16:19:20.078Z,5.00
2022-12-25T16:22:28.345Z,4.80
2022-12-25T16:25:32.818Z,5.00
2022-12-25T16:28:37.178Z,4.60
2022-12-25T16:31:41.883Z,5.10
2022-12-25T16:34:48.511Z,5.00
2022-12-25T16:37:53.145Z,4.90
2022-12-25T16:41:01.674Z,5.00
2022-12-25T16:44:11.165Z,4.90
2022-12-25T16:47:15.307Z,5.10
2022-12-25T16:50:19.906Z,4.80
2022-12-25T16:53:24.320Z,4.80
2022-12-25T16:56:30.879Z,4.80
2022-12-25T16:59:35.962Z,4.90
2022-12-25T17:02:40.969Z,4.80
2022-12-25T17:05:45.814Z,5.00
2022-12-25T17:08:51.990Z,4.80
2022-12-25T17:11:56.375Z,4.80
2022-12-25T17:15:00.638Z,5.00
2022-12-25T17:18:04.970Z,4.90
2022-12-25T17:21:09.634Z,5.10
2022-12-25T17:24:15.073Z,4.90
2022-12-25T17:27:19.722Z,4.90
2022-12-25T17:30:23.916Z,5.00
2022-12-25T17:33:28.439Z,5.20
2022-12-25T17:36:33.162Z,4.80
2022-12-25T17:39:38.516Z,5.20
2022-12-25T17:42:43.137Z,4.90
2022-12-25T17:45:47.311Z,4.80
2022-12-25T17:48:52.750Z,4.80
2022-12-25T17:51:57.198Z,4.80
2022-12-25T17:55:01.703Z,5.10
2022-12-25T17:58:06.336Z,4.90
2022-12-25T18:01:12.405Z,5.20
2022-12-25T18:04:17.069Z,5.30
2022-12-25T18:07:21.231Z,5.10
2022-12-25T18:10:25.729Z,5.00
2022-12-25T18:13:30.663Z,4.90
2022-12-25T18:16:37.446Z,5.10
2022-12-25T18:19:41.853Z,4.90
2022-12-25T18:22:46.025Z,5.30
2022-12-25T18:25:50.575Z,5.20
2022-12-25T18:28:55.741Z,5.30
2022-12-25T18:32:00.353Z,5.30
2022-12-25T18:35:05.499Z,5.30
2022-12-25T18:38:10.363Z,5.00
2022-12-25T18:41:15.292Z,5.00
2022-12-25T18:44:19.454Z,5.10
2022-12-25T18:47:24.055Z,5.10
2022-12-25T18:50:28.437Z,5.20
2022-12-25T18:53:34.349Z,5.30
2022-12-25T18:56:38.796Z,5.20
2022-12-25T18:59:43.225Z,5.10
2022-12-25T19:02:48.355Z,5.30
2022-12-25T19:05:53.109Z,5.30
2022-12-25T19:08:58.211Z,5.10
2022-12-25T19:12:03.015Z,5.50
2022-12-25T19:15:07.509Z,5.50
2022-12-25T19:18:11.908Z,5.30
2022-12-25T19:21:16.302Z,5.40
2022-12-25T19:24:21.443Z,5.60
2022-12-25T19:27:25.713Z,5.20
2022-12-25T19:30:30.048Z,5.50
2022-12-25T19:33:35.578Z,5.40
2022-12-25T19:36:40.610Z,5.50
2022-12-25T19:39:48.085Z,5.50
2022-12-25T19:42:52.376Z,5.40
2022-12-25T19:45:57.557Z,5.60
2022-12-25T19:49:04.313Z,5.70
2022-12-25T19:52:08.665Z,5.30
2022-12-25T19:55:13.165Z,5.60
2022-12-25T19:58:17.480Z,5.70
2022-12-25T20:01:25.185Z,5.60
2022-12-25T20:04:29.663Z,5.30
2022-12-25T20:07:34.466Z,5.70
2022-12-25T20:10:43.848Z,5.60
2022-12-25T20:13:48.900Z,5.60
2022-12-25T20:16:53.374Z,5.60
2022-12-25T20:19:57.808Z,5.50
2022-12-25T20:23:02.222Z,5.90
2022-12-25T20:26:07.259Z,5.70
2022-12-25T20:29:11.722Z,5.60
2022-12-25T20:32:16.277Z,5.90
2022-12-25T20:35:20.339Z,5.60
2022-12-25T20:38:24.665Z,6.00
2022-12-25T20:41:29.862Z,5.60
2022-12-25T20:44:34.755Z,6.10
2022-12-25T20:47:39.314Z,6.10
2022-12-25T20:50:43.571Z,5.80
2022-12-25T20:53:48.522Z,5.90
2022-12-25T20:56:52.657Z,5.60
2022-12-25T20:59:57.147Z,5.90
2022-12-25T21:03:01.788Z,6.00
2022-12-25T21:06:07.340Z,6.10
2022-12-25T21:09:11.741Z,5.90
2022-12-25T21:12:15.963Z,6.20
2022-12-25T21:15:20.764Z,5.80
2022-12-25T21:18:27.478Z,5.90
2022-12-25T21:21:31.957Z,6.30
2022-12-25T21:24:36.332Z,6.20
2022-12-25T21:27:40.535Z,5.90
2022-12-25T21:30:44.913Z,5.80
2022-12-25T21:33:52.165Z,5.90
2022-12-25T21:36:56.529Z,5.90
2022-12-25T21:40:01.118Z,6.00
2022-12-25T21:43:06.463Z,5.70
2022-12-25T21:46:12.593Z,6.30
2022-12-25T21:49:37.151Z,6.30
2022-12-25T21:52:41.087Z,5.80
2022-12-25T21:56:03.987Z,5.70
2022-12-25T21:59:09.193Z,6.40
2022-12-25T22:02:13.570Z,6.30
2022-12-25T22:05:37.956Z,6.40
2022-12-25T22:08:42.007Z,5.90
2022-12-25T22:12:05.052Z,5.90
2022-12-25T22:15:10.481Z,5.90
2022-12-25T22:18:33.237Z,6.30
2022-12-25T22:21:37.674Z,6.00
2022-12-25T22:24:42.483Z,6.00
2022-12-25T22:27:47.609Z,6.00
2022-12-25T22:30:52.000Z,6.10
2022-12-25T22:33:56.435Z,6.40
2022-12-25T22:37:02.207Z,6.50
2022-12-25T22:40:07.866Z,6.40
2022-12-25T22:43:12.126Z,6.00
2022-12-25T22:46:17.448Z,6.30
2022-12-25T22:49:21.920Z,5.80
2022-12-25T22:52:26.635Z,6.30
2022-12-25T22:55:30.998Z,6.10
2022-12-25T22:58:35.687Z,6.50
2022-12-25T23:01:40.564Z,6.00
2022-12-25T23:04:44.857Z,6.10
2022-12-25T23:07:49.091Z,6.10
2022-12-25T23:10:53.633Z,6.40
2022-12-25T23:14:16.886Z,6.00
2022-12-25T23:17:39.827Z,6.20
2022-12-25T23:21:02.553Z,6.50
2022-12-25T23:24:27.803Z,6.00
2022-12-25T23:27:32.304Z,6.60
2022-12-25T23:30:36.744Z,6.30
2022-12-25T23:33:40.965Z,5.90
2022-12-25T23:36:45.300Z,6.20
2022-12-25T23:39:50.149Z,6.70
2022-12-25T23:42:54.782Z,6.60
2022-12-25T23:45:59.332Z,6.10
2022-12-25T23:49:03.870Z,6.70
2022-12-25T23:52:11.272Z,6.10
2022-12-25T23:55:15.335Z,6.70
2022-12-25T23:58:19.856Z,6.70
